Time;durP1;ratioP1;P1;durP2;ratioP2;P2;SDS_P1;SDS_P2;PMS_P1;PMS_P2;Temp;Humidity;BMP_temperature;BMP_pressure;BME280_temperature;BME280_humidity;BME280_pressure;Samples;Min_cycle;Max_cycle;Signal;HPM_P1;HPM_P2
2022/09/03 00:01:17;;;;;;;1.70;1.33;;;;;;;;;;5072841;28;20719;-86
2022/09/03 00:03:46;;;;;;;2.47;1.60;;;;;;;;;;5073726;28;20205;-86
2022/09/03 00:06:16;;;;;;;2.87;1.30;;;;;;;;;;5073039;28;20229;-86
2022/09/03 00:08:47;;;;;;;1.30;1.30;;;;;;;;;;5079058;28;20225;-87
2022/09/03 00:11:17;;;;;;;2.30;1.60;;;;;;;;;;5094402;28;20236;-86
2022/09/03 00:13:46;;;;;;;3.03;1.40;;;;;;;;;;5094208;28;20220;-86
2022/09/03 00:16:14;;;;;;;1.57;1.47;;;;;;;;;;5086518;28;20258;-86
2022/09/03 00:18:43;;;;;;;1.27;1.17;;;;;;;;;;5073159;28;20624;-86
2022/09/03 00:21:13;;;;;;;3.27;1.50;;;;;;;;;;5072425;28;20283;-86
2022/09/03 00:23:41;;;;;;;4.47;1.50;;;;;;;;;;5073242;28;20209;-86
2022/09/03 00:26:17;;;;;;;1.30;1.20;;;;;;;;;;5072945;28;20243;-86
2022/09/03 00:28:46;;;;;;;2.27;1.40;;;;;;;;;;5074236;28;20229;-86
2022/09/03 00:31:17;;;;;;;3.70;1.20;;;;;;;;;;5072098;28;20229;-86
2022/09/03 00:33:45;;;;;;;1.77;1.20;;;;;;;;;;5073221;28;20217;-86
2022/09/03 00:36:15;;;;;;;1.70;1.60;;;;;;;;;;5072383;28;20224;-86
2022/09/03 00:38:42;;;;;;;2.60;1.13;;;;;;;;;;5073010;28;20236;-86
2022/09/03 00:41:14;;;;;;;2.23;1.70;;;;;;;;;;5072289;28;20225;-86
2022/09/03 00:43:50;;;;;;;1.47;1.30;;;;;;;;;;5073123;28;20218;-86
2022/09/03 00:46:19;;;;;;;1.57;1.33;;;;;;;;;;5072299;28;20279;-86
2022/09/03 00:49:08;;;;;;;1.50;1.40;;;;;;;;;;5072468;28;20229;-86
2022/09/03 00:51:39;;;;;;;1.40;1.30;;;;;;;;;;5072746;28;20205;-86
2022/09/03 00:54:09;;;;;;;1.30;1.20;;;;;;;;;;5072399;28;20606;-86
2022/09/03 00:56:40;;;;;;;2.77;1.70;;;;;;;;;;5072923;28;20186;-86
2022/09/03 00:59:20;;;;;;;1.17;1.17;;;;;;;;;;5072656;28;20263;-86
2022/09/03 01:01:51;;;;;;;1.07;1.07;;;;;;;;;;5072078;28;20205;-86
2022/09/03 01:04:26;;;;;;;1.00;1.00;;;;;;;;;;5072528;28;20241;-86
2022/09/03 01:06:58;;;;;;;1.53;1.27;;;;;;;;;;5071952;28;20201;-86
2022/09/03 01:09:30;;;;;;;1.33;1.23;;;;;;;;;;5072388;28;20261;-86
2022/09/03 01:12:00;;;;;;;3.80;1.40;;;;;;;;;;5074280;28;20193;-85
2022/09/03 01:14:35;;;;;;;1.30;1.20;;;;;;;;;;5076554;28;20236;-86
2022/09/03 01:17:05;;;;;;;1.20;1.10;;;;;;;;;;5076964;28;20193;-86
2022/09/03 01:19:47;;;;;;;1.80;1.27;;;;;;;;;;5076168;28;20241;-86
2022/09/03 01:22:23;;;;;;;1.33;1.27;;;;;;;;;;5076673;28;20181;-86
2022/09/03 01:25:08;;;;;;;1.50;1.40;;;;;;;;;;5076512;28;20237;-86
2022/09/03 01:27:42;;;;;;;1.27;1.27;;;;;;;;;;5077168;28;20208;-86
2022/09/03 01:30:17;;;;;;;1.47;1.33;;;;;;;;;;5076536;28;20233;-86
2022/09/03 01:32:48;;;;;;;1.57;1.47;;;;;;;;;;5076158;28;20201;-85
2022/09/03 01:35:20;;;;;;;1.20;1.20;;;;;;;;;;5076693;28;20243;-86
2022/09/03 01:37:57;;;;;;;1.07;1.07;;;;;;;;;;5077391;28;20225;-86
2022/09/03 01:40:25;;;;;;;1.47;1.37;;;;;;;;;;5091151;28;20255;-88
2022/09/03 01:43:01;;;;;;;1.47;1.13;;;;;;;;;;5076255;28;20571;-86
2022/09/03 01:45:40;;;;;;;2.00;1.13;;;;;;;;;;5075888;28;20240;-86
2022/09/03 01:48:15;;;;;;;1.20;1.10;;;;;;;;;;5076226;28;20208;-85
2022/09/03 01:50:48;;;;;;;1.70;1.47;;;;;;;;;;5075412;28;21003;-86
2022/09/03 01:53:31;;;;;;;2.77;1.47;;;;;;;;;;5075801;28;20194;-86
2022/09/03 01:56:05;;;;;;;2.47;1.50;;;;;;;;;;5075627;28;20240;-86
2022/09/03 01:58:34;;;;;;;1.00;1.00;;;;;;;;;;5076367;28;20249;-86
2022/09/03 02:01:07;;;;;;;2.13;1.70;;;;;;;;;;5074865;28;20233;-86
2022/09/03 02:03:36;;;;;;;2.57;1.10;;;;;;;;;;5076215;28;20647;-86
2022/09/03 02:06:04;;;;;;;1.13;1.13;;;;;;;;;;5075497;28;20241;-86
2022/09/03 02:08:31;;;;;;;1.50;1.40;;;;;;;;;;5076176;28;20225;-86
2022/09/03 02:11:01;;;;;;;4.17;1.40;;;;;;;;;;5075376;28;20257;-86
2022/09/03 02:13:31;;;;;;;1.67;1.40;;;;;;;;;;5076113;28;20293;-86
2022/09/03 02:16:00;;;;;;;1.63;1.40;;;;;;;;;;5074936;28;20258;-86
2022/09/03 02:18:30;;;;;;;3.87;1.40;;;;;;;;;;5075692;28;20225;-87
2022/09/03 02:20:58;;;;;;;1.87;1.47;;;;;;;;;;5075069;28;20232;-86
2022/09/03 02:23:26;;;;;;;2.00;1.30;;;;;;;;;;5075987;28;20219;-86
2022/09/03 02:25:55;;;;;;;1.47;1.40;;;;;;;;;;5074848;28;20225;-86
2022/09/03 02:28:23;;;;;;;1.57;1.40;;;;;;;;;;5075141;28;20229;-86
2022/09/03 02:30:51;;;;;;;1.70;1.20;;;;;;;;;;5074738;28;20318;-86
2022/09/03 02:33:18;;;;;;;2.10;1.77;;;;;;;;;;5075279;28;20300;-86
2022/09/03 02:35:46;;;;;;;2.53;1.40;;;;;;;;;;5074831;28;20240;-86
2022/09/03 02:38:14;;;;;;;1.87;1.30;;;;;;;;;;5075055;28;20323;-85
2022/09/03 02:40:41;;;;;;;1.40;1.30;;;;;;;;;;5074583;28;20237;-86
2022/09/03 02:43:14;;;;;;;5.30;1.40;;;;;;;;;;5075587;28;20288;-86
2022/09/03 02:45:42;;;;;;;1.20;1.20;;;;;;;;;;5074837;28;20233;-86
2022/09/03 02:48:10;;;;;;;2.70;1.30;;;;;;;;;;5075059;28;20194;-85
2022/09/03 02:50:40;;;;;;;4.10;1.50;;;;;;;;;;5074425;28;20229;-85
2022/09/03 02:53:09;;;;;;;3.70;1.23;;;;;;;;;;5074732;28;20198;-86
2022/09/03 02:55:36;;;;;;;3.33;1.33;;;;;;;;;;5074339;28;20241;-86
2022/09/03 02:58:04;;;;;;;1.30;1.20;;;;;;;;;;5074563;28;20204;-86
2022/09/03 03:00:31;;;;;;;1.30;1.20;;;;;;;;;;5074255;28;20244;-86
2022/09/03 03:02:59;;;;;;;1.57;1.30;;;;;;;;;;5074496;28;20201;-86
2022/09/03 03:05:30;;;;;;;3.20;1.23;;;;;;;;;;5074214;28;20255;-86
2022/09/03 03:07:57;;;;;;;1.60;1.50;;;;;;;;;;5074627;28;20219;-86
2022/09/03 03:10:26;;;;;;;1.10;1.10;;;;;;;;;;5073900;28;20256;-86
2022/09/03 03:12:53;;;;;;;1.73;1.37;;;;;;;;;;5074141;28;20700;-86
2022/09/03 03:15:20;;;;;;;1.50;1.40;;;;;;;;;;5074056;28;20237;-86
2022/09/03 03:17:47;;;;;;;1.30;1.20;;;;;;;;;;5074528;28;20296;-86
2022/09/03 03:20:15;;;;;;;1.10;1.10;;;;;;;;;;5073913;28;20711;-86
2022/09/03 03:22:42;;;;;;;1.40;1.30;;;;;;;;;;5074271;28;20560;-86
2022/09/03 03:25:09;;;;;;;2.10;1.33;;;;;;;;;;5074055;28;20229;-86
2022/09/03 03:27:40;;;;;;;2.87;1.37;;;;;;;;;;5074129;28;20299;-86
2022/09/03 03:30:08;;;;;;;1.47;1.30;;;;;;;;;;5073643;28;20255;-86
2022/09/03 03:32:35;;;;;;;1.40;1.30;;;;;;;;;;5074092;28;20201;-86
2022/09/03 03:35:02;;;;;;;1.40;1.30;;;;;;;;;;5073268;28;20233;-86
2022/09/03 03:37:29;;;;;;;2.40;1.17;;;;;;;;;;5074328;28;20255;-86
2022/09/03 03:39:56;;;;;;;1.50;1.40;;;;;;;;;;5094007;22;20225;-89
2022/09/03 03:42:24;;;;;;;2.03;1.40;;;;;;;;;;5074427;28;20240;-89
2022/09/03 03:44:52;;;;;;;1.17;1.17;;;;;;;;;;5073616;28;20236;-90
2022/09/03 03:47:19;;;;;;;2.13;1.30;;;;;;;;;;5074285;28;20202;-89
2022/09/03 03:49:46;;;;;;;1.10;1.10;;;;;;;;;;5073816;28;20468;-89
2022/09/03 03:52:13;;;;;;;3.57;1.33;;;;;;;;;;5074424;28;20287;-89
2022/09/03 03:54:42;;;;;;;1.50;1.40;;;;;;;;;;5073738;28;20229;-88
2022/09/03 03:57:09;;;;;;;4.40;1.30;;;;;;;;;;5074467;28;20197;-89
2022/09/03 03:59:36;;;;;;;0.90;0.90;;;;;;;;;;5073437;28;20657;-89
2022/09/03 04:02:04;;;;;;;1.33;1.30;;;;;;;;;;5074164;28;20635;-89
2022/09/03 04:04:31;;;;;;;2.13;1.40;;;;;;;;;;5073518;28;20233;-89
2022/09/03 04:06:58;;;;;;;1.63;1.40;;;;;;;;;;5074594;28;20209;-89
2022/09/03 04:09:25;;;;;;;1.30;1.20;;;;;;;;;;5073215;28;20577;-89
2022/09/03 04:11:52;;;;;;;1.57;1.47;;;;;;;;;;5074448;28;20202;-89
2022/09/03 04:14:21;;;;;;;1.67;1.53;;;;;;;;;;5073111;28;20236;-88
2022/09/03 04:16:49;;;;;;;2.00;1.57;;;;;;;;;;5074163;28;20245;-89
2022/09/03 04:19:18;;;;;;;1.50;1.40;;;;;;;;;;5063410;28;20245;-88
2022/09/03 04:21:46;;;;;;;1.40;1.30;;;;;;;;;;5072967;28;20229;-89
2022/09/03 04:24:13;;;;;;;2.97;1.40;;;;;;;;;;5073140;28;20212;-89
2022/09/03 04:26:40;;;;;;;3.17;1.40;;;;;;;;;;5073985;28;20202;-89
2022/09/03 04:29:08;;;;;;;4.10;1.40;;;;;;;;;;5073528;28;20278;-89
2022/09/03 04:31:35;;;;;;;1.90;1.50;;;;;;;;;;5076872;28;20217;-88
2022/09/03 04:34:02;;;;;;;1.67;1.57;;;;;;;;;;5082083;28;20216;-89
2022/09/03 04:36:31;;;;;;;1.47;1.10;;;;;;;;;;5083254;28;20193;-89
2022/09/03 04:38:59;;;;;;;6.33;1.60;;;;;;;;;;5079186;28;20263;-89
2022/09/03 04:41:27;;;;;;;1.50;1.40;;;;;;;;;;5055546;28;20733;-86
2022/09/03 04:43:55;;;;;;;3.33;1.63;;;;;;;;;;5059255;28;20216;-80
2022/09/03 04:46:24;;;;;;;8.83;1.90;;;;;;;;;;5057554;28;20213;-83
2022/09/03 04:48:52;;;;;;;1.80;1.70;;;;;;;;;;5061148;28;20225;-80
2022/09/03 04:51:20;;;;;;;2.43;1.70;;;;;;;;;;5058221;28;20233;-86
2022/09/03 04:53:53;;;;;;;1.40;1.30;;;;;;;;;;5062387;28;20209;-84
2022/09/03 04:56:22;;;;;;;1.60;1.30;;;;;;;;;;5075976;28;20213;-83
2022/09/03 04:58:50;;;;;;;2.20;1.27;;;;;;;;;;5058795;28;20241;-86
2022/09/03 05:01:18;;;;;;;1.43;1.30;;;;;;;;;;5058312;28;20702;-85
2022/09/03 05:03:45;;;;;;;3.30;1.63;;;;;;;;;;5057973;28;20205;-86
2022/09/03 05:06:15;;;;;;;1.97;1.47;;;;;;;;;;5048457;28;20225;-86
2022/09/03 05:08:43;;;;;;;1.67;1.53;;;;;;;;;;5077935;28;20794;-85
2022/09/03 05:11:11;;;;;;;2.67;1.60;;;;;;;;;;5077405;28;20316;-86
2022/09/03 05:13:38;;;;;;;3.03;1.30;;;;;;;;;;5077277;28;20201;-86
2022/09/03 05:16:07;;;;;;;1.67;1.40;;;;;;;;;;5077211;28;20244;-85
2022/09/03 05:18:35;;;;;;;1.57;1.47;;;;;;;;;;5076429;28;20208;-84
2022/09/03 05:21:02;;;;;;;1.93;1.60;;;;;;;;;;5064219;28;20230;-85
2022/09/03 05:23:29;;;;;;;2.63;1.40;;;;;;;;;;5080611;28;20197;-84
2022/09/03 05:25:58;;;;;;;1.67;1.47;;;;;;;;;;5077764;28;20233;-85
2022/09/03 05:28:27;;;;;;;2.93;1.60;;;;;;;;;;5077754;28;20669;-84
2022/09/03 05:31:01;;;;;;;3.00;1.40;;;;;;;;;;5075885;28;20236;-84
2022/09/03 05:33:28;;;;;;;1.87;1.57;;;;;;;;;;5076441;28;20205;-84
2022/09/03 05:35:55;;;;;;;2.27;1.40;;;;;;;;;;5056178;28;20234;-85
2022/09/03 05:38:22;;;;;;;4.00;1.67;;;;;;;;;;5056178;28;20210;-84
2022/09/03 05:40:50;;;;;;;3.90;1.53;;;;;;;;;;5055709;28;20261;-84
2022/09/03 05:43:17;;;;;;;3.57;1.20;;;;;;;;;;5056481;28;20234;-84
2022/09/03 05:45:45;;;;;;;1.70;1.30;;;;;;;;;;5055339;28;20321;-83
2022/09/03 05:48:12;;;;;;;1.67;1.43;;;;;;;;;;5055907;28;20206;-85
2022/09/03 05:50:39;;;;;;;1.40;1.30;;;;;;;;;;5055563;28;20249;-85
2022/09/03 05:53:06;;;;;;;1.67;1.57;;;;;;;;;;5055912;28;20202;-86
2022/09/03 05:55:34;;;;;;;3.60;1.70;;;;;;;;;;5055910;28;20608;-87
2022/09/03 05:58:01;;;;;;;3.67;1.93;;;;;;;;;;5055174;28;20205;-88
2022/09/03 06:00:28;;;;;;;3.50;1.53;;;;;;;;;;5054183;28;20697;-85
2022/09/03 06:02:56;;;;;;;6.63;1.50;;;;;;;;;;5055016;28;20233;-84
2022/09/03 06:05:24;;;;;;;1.67;1.57;;;;;;;;;;5054630;28;20234;-85
2022/09/03 06:07:52;;;;;;;2.77;1.70;;;;;;;;;;5055079;28;20621;-85
2022/09/03 06:10:19;;;;;;;1.60;1.50;;;;;;;;;;5044205;28;20242;-87
2022/09/03 06:12:48;;;;;;;1.53;1.30;;;;;;;;;;5058037;28;20658;-86
2022/09/03 06:15:15;;;;;;;1.53;1.27;;;;;;;;;;5057026;28;20236;-85
2022/09/03 06:17:42;;;;;;;1.93;1.80;;;;;;;;;;5056716;28;20233;-86
2022/09/03 06:20:12;;;;;;;6.43;1.60;;;;;;;;;;5055241;28;20238;-85
2022/09/03 06:22:39;;;;;;;1.30;1.20;;;;;;;;;;5053665;28;20218;-84
2022/09/03 06:25:08;;;;;;;2.10;1.33;;;;;;;;;;5043642;28;20238;-84
2022/09/03 06:27:36;;;;;;;2.63;1.60;;;;;;;;;;5038668;28;20218;-86
2022/09/03 06:30:03;;;;;;;1.87;1.60;;;;;;;;;;5035618;28;20242;-83
2022/09/03 06:32:30;;;;;;;5.13;1.67;;;;;;;;;;5053345;28;20202;-85
2022/09/03 06:34:57;;;;;;;2.60;1.60;;;;;;;;;;5042982;28;20737;-84
2022/09/03 06:37:25;;;;;;;1.80;1.70;;;;;;;;;;5036607;28;20207;-83
2022/09/03 06:39:53;;;;;;;2.80;1.53;;;;;;;;;;5033431;28;20239;-84
2022/09/03 06:42:21;;;;;;;1.80;1.53;;;;;;;;;;5035718;28;20226;-83
2022/09/03 06:44:50;;;;;;;1.63;1.53;;;;;;;;;;5053219;28;20242;-85
2022/09/03 06:47:17;;;;;;;2.00;1.80;;;;;;;;;;5061446;28;20194;-87
2022/09/03 06:49:44;;;;;;;3.30;1.57;;;;;;;;;;5073116;28;20240;-83
2022/09/03 06:52:11;;;;;;;2.17;1.70;;;;;;;;;;5074883;28;20222;-88
2022/09/03 06:54:40;;;;;;;7.77;2.00;;;;;;;;;;5074190;28;20239;-88
2022/09/03 06:57:07;;;;;;;2.03;1.80;;;;;;;;;;5078947;28;20185;-89
2022/09/03 06:59:34;;;;;;;5.70;2.10;;;;;;;;;;5081247;28;20245;-88
2022/09/03 07:02:02;;;;;;;4.10;1.77;;;;;;;;;;5074764;28;20225;-87
2022/09/03 07:04:30;;;;;;;3.57;1.73;;;;;;;;;;5074542;28;20656;-88
2022/09/03 07:06:57;;;;;;;1.90;1.70;;;;;;;;;;5073803;28;20208;-87
2022/09/03 07:09:24;;;;;;;2.80;1.90;;;;;;;;;;5061598;28;20242;-87
2022/09/03 07:11:53;;;;;;;4.90;1.70;;;;;;;;;;5061537;28;20217;-89
2022/09/03 07:14:21;;;;;;;2.63;1.60;;;;;;;;;;5061332;28;20229;-88
2022/09/03 07:16:49;;;;;;;4.97;1.70;;;;;;;;;;5053963;28;20202;-87
2022/09/03 07:19:16;;;;;;;2.00;1.90;;;;;;;;;;5053651;28;20762;-86
2022/09/03 07:21:44;;;;;;;6.00;2.33;;;;;;;;;;5053124;28;20213;-86
2022/09/03 07:24:11;;;;;;;5.53;2.00;;;;;;;;;;5053458;28;20209;-86
2022/09/03 07:26:42;;;;;;;1.70;1.60;;;;;;;;;;5053711;28;20259;-86
2022/09/03 07:29:11;;;;;;;1.80;1.70;;;;;;;;;;5053365;28;20224;-88
2022/09/03 07:31:39;;;;;;;2.67;2.07;;;;;;;;;;5053581;28;20209;-88
2022/09/03 07:34:07;;;;;;;4.40;2.10;;;;;;;;;;5053120;28;20293;-86
2022/09/03 07:36:37;;;;;;;4.70;2.50;;;;;;;;;;5069610;28;20224;-87
2022/09/03 07:39:05;;;;;;;2.33;1.80;;;;;;;;;;5072771;28;20240;-87
2022/09/03 07:41:32;;;;;;;2.37;1.80;;;;;;;;;;5072941;28;20213;-87
2022/09/03 07:44:04;;;;;;;2.37;1.77;;;;;;;;;;5072665;28;20667;-86
2022/09/03 07:46:33;;;;;;;4.00;1.90;;;;;;;;;;5071949;28;20212;-86
2022/09/03 07:49:02;;;;;;;2.03;1.70;;;;;;;;;;5052693;28;20234;-86
2022/09/03 07:51:30;;;;;;;2.00;1.67;;;;;;;;;;5052757;28;20210;-86
2022/09/03 07:53:58;;;;;;;1.80;1.70;;;;;;;;;;5052361;28;20688;-85
2022/09/03 07:56:25;;;;;;;6.70;1.77;;;;;;;;;;5053668;28;20217;-87
2022/09/03 07:58:54;;;;;;;1.97;1.87;;;;;;;;;;5053117;28;20586;-87
2022/09/03 08:01:22;;;;;;;2.10;1.83;;;;;;;;;;5052875;28;20681;-87
2022/09/03 08:03:51;;;;;;;1.80;1.70;;;;;;;;;;5053100;28;20230;-87
2022/09/03 08:06:19;;;;;;;2.77;2.00;;;;;;;;;;5052417;28;20234;-87
2022/09/03 08:08:46;;;;;;;2.83;1.70;;;;;;;;;;5053245;28;20247;-88
2022/09/03 08:11:14;;;;;;;2.23;1.87;;;;;;;;;;5052376;28;20237;-87
2022/09/03 08:13:41;;;;;;;2.50;2.30;;;;;;;;;;5052898;28;20213;-88
2022/09/03 08:16:09;;;;;;;5.20;2.10;;;;;;;;;;5052326;28;20618;-87
2022/09/03 08:18:37;;;;;;;2.53;2.00;;;;;;;;;;5065458;28;20242;-87
2022/09/03 08:21:07;;;;;;;6.00;1.97;;;;;;;;;;5071691;28;20602;-88
2022/09/03 08:23:37;;;;;;;2.20;1.77;;;;;;;;;;5072797;28;20221;-88
2022/09/03 08:26:04;;;;;;;2.03;1.83;;;;;;;;;;5072245;28;20248;-88
2022/09/03 08:28:31;;;;;;;4.03;1.90;;;;;;;;;;5063928;28;20213;-88
2022/09/03 08:30:58;;;;;;;2.33;1.87;;;;;;;;;;5056925;28;20221;-87
2022/09/03 08:33:36;;;;;;;2.57;2.00;;;;;;;;;;5072175;28;20208;-88
2022/09/03 08:36:04;;;;;;;2.80;1.90;;;;;;;;;;5049354;28;20237;-88
2022/09/03 08:38:33;;;;;;;3.23;2.03;;;;;;;;;;5051388;28;20557;-87
2022/09/03 08:41:07;;;;;;;2.70;1.50;;;;;;;;;;5053082;28;20229;-87
2022/09/03 08:43:40;;;;;;;1.90;1.80;;;;;;;;;;5055661;28;20225;-88
2022/09/03 08:46:07;;;;;;;3.23;1.70;;;;;;;;;;5054512;28;20234;-88
2022/09/03 08:48:35;;;;;;;2.20;1.97;;;;;;;;;;5053257;28;20289;-88
2022/09/03 08:51:03;;;;;;;4.47;1.63;;;;;;;;;;5052802;28;20240;-88
2022/09/03 08:53:35;;;;;;;1.80;1.70;;;;;;;;;;5067576;28;20604;-87
2022/09/03 08:56:07;;;;;;;1.70;1.60;;;;;;;;;;5092701;28;20237;-87
2022/09/03 08:58:37;;;;;;;2.40;1.70;;;;;;;;;;5088640;28;20208;-81
2022/09/03 09:01:07;;;;;;;2.63;1.60;;;;;;;;;;5051373;28;20229;-81
2022/09/03 09:03:36;;;;;;;2.00;1.50;;;;;;;;;;5052310;28;20313;-81
2022/09/03 09:06:08;;;;;;;2.20;1.65;;;;;;;;;;5052216;28;20238;-80
2022/09/03 09:08:39;;;;;;;1.50;1.40;;;;;;;;;;5053038;28;20264;-80
2022/09/03 09:11:12;;;;;;;2.30;1.63;;;;;;;;;;5052464;28;20234;-80
2022/09/03 09:13:43;;;;;;;3.35;1.42;;;;;;;;;;5052601;28;20194;-80
2022/09/03 09:16:14;;;;;;;2.65;1.90;;;;;;;;;;5052717;28;20689;-80
2022/09/03 09:18:47;;;;;;;1.95;1.70;;;;;;;;;;5053441;28;20350;-80
2022/09/03 09:21:16;;;;;;;1.98;1.70;;;;;;;;;;5053074;28;20356;-80
2022/09/03 09:23:45;;;;;;;2.53;1.80;;;;;;;;;;5053650;28;20236;-80
2022/09/03 09:26:15;;;;;;;2.70;1.50;;;;;;;;;;5051673;28;20232;-87
2022/09/03 09:28:44;;;;;;;3.63;1.65;;;;;;;;;;5051999;28;20233;-87
2022/09/03 09:31:14;;;;;;;1.70;1.60;;;;;;;;;;5051051;28;20234;-87
2022/09/03 09:33:42;;;;;;;2.45;2.25;;;;;;;;;;5054258;28;20221;-87
2022/09/03 09:36:14;;;;;;;1.70;1.60;;;;;;;;;;5054883;28;20235;-87
2022/09/03 09:38:41;;;;;;;2.20;2.03;;;;;;;;;;5055590;28;20226;-86
2022/09/03 09:41:09;;;;;;;2.53;1.60;;;;;;;;;;5055364;28;20234;-88
2022/09/03 09:43:38;;;;;;;2.55;1.65;;;;;;;;;;5055315;28;20304;-88
2022/09/03 09:46:09;;;;;;;1.92;1.83;;;;;;;;;;5090196;22;20225;-80
2022/09/03 09:48:39;;;;;;;1.90;1.80;;;;;;;;;;5078577;28;20197;-80
2022/09/03 09:51:08;;;;;;;2.10;1.90;;;;;;;;;;5087151;28;20225;-80
2022/09/03 09:53:35;;;;;;;1.70;1.60;;;;;;;;;;5066707;28;20232;-80
2022/09/03 09:56:02;;;;;;;2.65;1.90;;;;;;;;;;5061364;28;20238;-80
2022/09/03 09:58:31;;;;;;;3.58;1.77;;;;;;;;;;5056788;28;20228;-80
2022/09/03 10:01:02;;;;;;;3.03;1.83;;;;;;;;;;5055498;28;20773;-81
2022/09/03 10:03:30;;;;;;;1.95;1.85;;;;;;;;;;5061382;28;20210;-82
2022/09/03 10:06:52;;;;;;;3.00;2.00;;;;;;;;;;5097057;28;20262;-82
2022/09/03 10:08:51;;;;;;;2.22;2.03;;;;;;;;;;5082439;28;20290;-81
2022/09/03 10:11:24;;;;;;;2.30;1.80;;;;;;;;;;5076371;28;20229;-81
2022/09/03 10:13:53;;;;;;;2.28;1.95;;;;;;;;;;5077091;28;20189;-80
2022/09/03 10:16:26;;;;;;;2.10;1.90;;;;;;;;;;5073966;28;20696;-78
2022/09/03 10:18:55;;;;;;;2.70;2.28;;;;;;;;;;5073996;28;20809;-80
2022/09/03 10:21:28;;;;;;;3.72;1.75;;;;;;;;;;5068448;28;20240;-79
2022/09/03 10:23:59;;;;;;;3.05;1.80;;;;;;;;;;5074490;28;20214;-79
2022/09/03 10:26:29;;;;;;;3.33;2.08;;;;;;;;;;5073761;28;20708;-81
2022/09/03 10:28:57;;;;;;;4.75;2.08;;;;;;;;;;5073625;28;20576;-78
2022/09/03 10:31:35;;;;;;;2.47;1.92;;;;;;;;;;5073757;28;20236;-79
2022/09/03 10:34:07;;;;;;;3.22;1.98;;;;;;;;;;5073647;28;20225;-78
2022/09/03 10:36:35;;;;;;;2.05;1.85;;;;;;;;;;5074214;28;20594;-78
2022/09/03 10:39:05;;;;;;;1.85;1.75;;;;;;;;;;5073104;28;20403;-78
2022/09/03 10:41:39;;;;;;;3.05;1.90;;;;;;;;;;5074691;28;20224;-79
2022/09/03 10:44:21;;;;;;;2.10;1.88;;;;;;;;;;5089575;28;20229;-80
2022/09/03 10:46:55;;;;;;;2.47;2.10;;;;;;;;;;5074503;28;20209;-79
2022/09/03 10:49:27;;;;;;;2.30;2.10;;;;;;;;;;5073153;28;20697;-79
2022/09/03 10:52:00;;;;;;;1.95;1.85;;;;;;;;;;5073383;28;20547;-79
2022/09/03 10:54:33;;;;;;;3.08;2.35;;;;;;;;;;5073287;28;20240;-80
2022/09/03 10:57:04;;;;;;;5.82;2.13;;;;;;;;;;5073293;28;20194;-79
2022/09/03 10:59:36;;;;;;;2.08;1.83;;;;;;;;;;5073321;28;20245;-79
2022/09/03 11:02:17;;;;;;;4.82;2.17;;;;;;;;;;5073243;28;20194;-77
2022/09/03 11:04:48;;;;;;;2.83;2.25;;;;;;;;;;5072556;28;20233;-79
2022/09/03 11:07:18;;;;;;;1.73;1.63;;;;;;;;;;5073035;28;20208;-78
2022/09/03 11:09:48;;;;;;;2.92;2.08;;;;;;;;;;5072870;28;20237;-79
2022/09/03 11:12:20;;;;;;;2.17;2.08;;;;;;;;;;5081565;28;20185;-78
2022/09/03 11:14:50;;;;;;;2.28;2.17;;;;;;;;;;5073109;28;20237;-79
2022/09/03 11:17:25;;;;;;;2.65;2.13;;;;;;;;;;5073484;28;20206;-79
2022/09/03 11:19:55;;;;;;;3.20;2.15;;;;;;;;;;5072954;28;20229;-80
2022/09/03 11:22:23;;;;;;;2.10;1.90;;;;;;;;;;5073887;28;20528;-80
2022/09/03 11:24:53;;;;;;;2.15;1.98;;;;;;;;;;5073323;28;20248;-80
2022/09/03 11:27:25;;;;;;;2.42;2.10;;;;;;;;;;5072143;28;20232;-80
2022/09/03 11:29:54;;;;;;;6.35;1.92;;;;;;;;;;5072807;28;20237;-80
2022/09/03 11:32:24;;;;;;;2.30;2.10;;;;;;;;;;5073231;28;20194;-80
2022/09/03 11:34:53;;;;;;;2.30;2.05;;;;;;;;;;5072630;28;20244;-82
2022/09/03 11:37:21;;;;;;;1.98;1.88;;;;;;;;;;5073882;28;20281;-80
2022/09/03 11:39:59;;;;;;;2.53;1.92;;;;;;;;;;5072297;28;20244;-80
2022/09/03 11:42:31;;;;;;;2.05;1.83;;;;;;;;;;5072453;28;20193;-80
2022/09/03 11:45:01;;;;;;;2.55;2.20;;;;;;;;;;5072040;28;20243;-79
2022/09/03 11:47:39;;;;;;;3.80;2.20;;;;;;;;;;5077316;28;20189;-81
2022/09/03 11:50:08;;;;;;;2.85;2.05;;;;;;;;;;5074861;28;20232;-80
2022/09/03 11:52:39;;;;;;;2.17;1.98;;;;;;;;;;5072715;28;20210;-79
2022/09/03 11:55:07;;;;;;;1.98;1.80;;;;;;;;;;5071274;28;20260;-79
2022/09/03 11:57:40;;;;;;;1.83;1.73;;;;;;;;;;5071614;28;20209;-78
2022/09/03 12:00:10;;;;;;;4.03;2.30;;;;;;;;;;5071291;28;20229;-78
2022/09/03 12:02:43;;;;;;;2.40;2.20;;;;;;;;;;5071702;28;20742;-78
2022/09/03 12:05:19;;;;;;;2.00;1.90;;;;;;;;;;5069698;28;20233;-78
2022/09/03 12:08:02;;;;;;;3.30;2.08;;;;;;;;;;5071593;28;20185;-79
2022/09/03 12:10:35;;;;;;;2.50;2.30;;;;;;;;;;5071366;28;20240;-81
2022/09/03 12:13:11;;;;;;;2.20;2.00;;;;;;;;;;5071870;28;20190;-79
2022/09/03 12:15:46;;;;;;;2.47;2.15;;;;;;;;;;5071365;28;20248;-79
2022/09/03 12:18:19;;;;;;;2.22;2.00;;;;;;;;;;5072101;28;20204;-79
2022/09/03 12:20:47;;;;;;;1.80;1.70;;;;;;;;;;5071061;28;20233;-79
2022/09/03 12:23:15;;;;;;;2.67;2.10;;;;;;;;;;5072784;28;20209;-87
2022/09/03 12:25:46;;;;;;;3.72;2.00;;;;;;;;;;5073573;28;20370;-85
2022/09/03 12:28:18;;;;;;;1.85;1.75;;;;;;;;;;5073857;28;20244;-84
2022/09/03 12:30:46;;;;;;;1.88;1.77;;;;;;;;;;5074472;28;20290;-83
2022/09/03 12:33:13;;;;;;;1.85;1.70;;;;;;;;;;5072973;28;20205;-84
2022/09/03 12:35:42;;;;;;;1.85;1.67;;;;;;;;;;5072320;28;20240;-84
2022/09/03 12:38:09;;;;;;;1.80;1.70;;;;;;;;;;5074868;28;20292;-84
2022/09/03 12:40:42;;;;;;;2.10;1.80;;;;;;;;;;5073536;28;20234;-85
2022/09/03 12:43:13;;;;;;;3.63;1.75;;;;;;;;;;5074255;28;20189;-84
2022/09/03 12:45:44;;;;;;;3.15;1.55;;;;;;;;;;5072092;28;20244;-84
2022/09/03 12:48:14;;;;;;;2.38;2.20;;;;;;;;;;5072728;28;20213;-84
2022/09/03 12:50:43;;;;;;;1.95;1.85;;;;;;;;;;5072157;28;20233;-84
2022/09/03 12:53:12;;;;;;;1.88;1.75;;;;;;;;;;5072615;28;20208;-84
2022/09/03 12:55:43;;;;;;;1.80;1.70;;;;;;;;;;5072218;28;20304;-84
2022/09/03 12:58:12;;;;;;;1.67;1.48;;;;;;;;;;5073014;28;20193;-84
2022/09/03 13:00:41;;;;;;;2.08;1.58;;;;;;;;;;5072499;28;20233;-87
2022/09/03 13:03:11;;;;;;;2.08;1.88;;;;;;;;;;5072443;28;20646;-83
2022/09/03 13:05:43;;;;;;;2.08;1.90;;;;;;;;;;5072066;28;20236;-84
2022/09/03 13:08:15;;;;;;;2.05;1.75;;;;;;;;;;5075856;28;20190;-84
2022/09/03 13:10:43;;;;;;;1.90;1.80;;;;;;;;;;5079750;28;20649;-84
2022/09/03 13:13:20;;;;;;;1.60;1.50;;;;;;;;;;5098041;28;20205;-84
2022/09/03 13:15:57;;;;;;;1.88;1.73;;;;;;;;;;5096349;28;20231;-84
2022/09/03 13:18:28;;;;;;;1.60;1.50;;;;;;;;;;5097080;28;20188;-83
2022/09/03 13:21:05;;;;;;;2.47;1.60;;;;;;;;;;5096652;28;20822;-83
2022/09/03 13:23:38;;;;;;;3.22;1.80;;;;;;;;;;5097618;28;20188;-84
2022/09/03 13:26:24;;;;;;;2.00;1.90;;;;;;;;;;5096848;28;20240;-84
2022/09/03 13:28:57;;;;;;;1.85;1.70;;;;;;;;;;5097272;28;20192;-84
2022/09/03 13:31:28;;;;;;;1.73;1.60;;;;;;;;;;5116525;28;20212;-91
2022/09/03 13:33:58;;;;;;;2.13;1.73;;;;;;;;;;5119572;28;20216;-83
2022/09/03 13:36:27;;;;;;;2.42;1.80;;;;;;;;;;5097354;28;20738;-83
2022/09/03 13:38:58;;;;;;;1.90;1.70;;;;;;;;;;5097284;28;20721;-84
2022/09/03 13:41:34;;;;;;;7.47;2.85;;;;;;;;;;5097020;28;20559;-83
2022/09/03 13:44:06;;;;;;;1.98;1.88;;;;;;;;;;5096694;28;20575;-84
2022/09/03 13:46:36;;;;;;;1.88;1.77;;;;;;;;;;5096985;28;20251;-84
2022/09/03 13:52:06;;;;;;;2.13;1.92;;;;;;;;;;5072120;28;20204;-83
2022/09/03 13:54:37;;;;;;;2.20;2.00;;;;;;;;;;5096587;28;20228;-83
2022/09/03 13:57:06;;;;;;;3.42;2.22;;;;;;;;;;5097661;28;20196;-84
2022/09/03 14:02:56;;;;;;;1.90;1.73;;;;;;;;;;5101657;28;20168;-86
2022/09/03 14:05:35;;;;;;;1.88;1.67;;;;;;;;;;5119340;28;20254;-89
2022/09/03 14:08:07;;;;;;;1.70;1.60;;;;;;;;;;5100152;28;20182;-88
2022/09/03 14:10:45;;;;;;;2.30;2.10;;;;;;;;;;5098105;28;20225;-88
2022/09/03 14:13:18;;;;;;;1.88;1.77;;;;;;;;;;5099893;28;20189;-85
2022/09/03 14:15:48;;;;;;;2.35;1.55;;;;;;;;;;5098761;28;20290;-86
2022/09/03 14:18:22;;;;;;;1.65;1.55;;;;;;;;;;5096878;28;20182;-80
2022/09/03 14:20:55;;;;;;;2.03;1.85;;;;;;;;;;5096827;28;20289;-83
2022/09/03 14:23:26;;;;;;;2.20;1.73;;;;;;;;;;5097840;28;20220;-82
2022/09/03 14:25:55;;;;;;;1.88;1.77;;;;;;;;;;5097774;28;20225;-83
2022/09/03 14:28:29;;;;;;;1.92;1.70;;;;;;;;;;5099271;28;20197;-83
2022/09/03 14:31:01;;;;;;;1.83;1.50;;;;;;;;;;5097887;28;20209;-82
2022/09/03 14:33:32;;;;;;;2.15;2.00;;;;;;;;;;5095118;28;20201;-81
2022/09/03 14:36:08;;;;;;;3.08;1.60;;;;;;;;;;5094637;28;20225;-82
2022/09/03 14:38:56;;;;;;;1.95;1.60;;;;;;;;;;5072905;28;20201;-82
2022/09/03 14:41:33;;;;;;;1.92;1.83;;;;;;;;;;5048365;28;20229;-82
2022/09/03 14:44:10;;;;;;;1.70;1.60;;;;;;;;;;5084776;28;20582;-82
2022/09/03 14:46:44;;;;;;;2.13;1.92;;;;;;;;;;5082201;28;20233;-81
2022/09/03 14:49:29;;;;;;;1.83;1.73;;;;;;;;;;5080869;28;20200;-81
2022/09/03 14:52:08;;;;;;;2.92;1.58;;;;;;;;;;5071493;28;20255;-83
2022/09/03 14:54:42;;;;;;;2.40;1.30;;;;;;;;;;5077753;28;20638;-84
2022/09/03 14:57:18;;;;;;;1.70;1.60;;;;;;;;;;5057811;28;20197;-83
2022/09/03 14:59:55;;;;;;;1.38;1.27;;;;;;;;;;5057516;28;20241;-83
2022/09/03 15:02:53;;;;;;;1.67;1.58;;;;;;;;;;5056937;28;20207;-84
2022/09/03 15:05:28;;;;;;;1.88;1.50;;;;;;;;;;5014890;28;20262;-83
2022/09/03 15:07:56;;;;;;;1.90;1.80;;;;;;;;;;5067531;28;20196;-83